sensor_id;sensor_type;location;lat;lon;timestamp;pressure;altitude;pressure_sealevel;temperature;humidity
62462;BME280;48511;38.664;-9.202;2022-12-19T00:00:47;50130.69;;;-146.63;84.24
62462;BME280;48511;38.664;-9.202;2022-12-19T00:02:49;50107.00;;;-146.63;83.59
62462;BME280;48511;38.664;-9.202;2022-12-19T00:04:49;50099.09;;;-146.63;83.87
62462;BME280;48511;38.664;-9.202;2022-12-19T00:06:50;50128.72;;;-146.63;83.69
62462;BME280;48511;38.664;-9.202;2022-12-19T00:08:52;50134.63;;;-146.63;83.75
62462;BME280;48511;38.664;-9.202;2022-12-19T00:10:55;50138.59;;;-146.63;83.48
62462;BME280;48511;38.664;-9.202;2022-12-19T00:12:56;50134.63;;;-146.63;83.41
62462;BME280;48511;38.664;-9.202;2022-12-19T00:14:57;50110.94;;;-146.63;83.31
62462;BME280;48511;38.664;-9.202;2022-12-19T00:16:57;50130.69;;;-146.63;83.38
62462;BME280;48511;38.664;-9.202;2022-12-19T00:18:59;50103.06;;;-146.63;83.44
62462;BME280;48511;38.664;-9.202;2022-12-19T00:21:02;50107.00;;;-146.63;83.34
62462;BME280;48511;38.664;-9.202;2022-12-19T00:23:03;50107.00;;;-146.63;83.32
62462;BME280;48511;38.664;-9.202;2022-12-19T00:25:04;50126.75;;;-146.63;83.29
62462;BME280;48511;38.664;-9.202;2022-12-19T00:27:05;50140.56;;;-146.63;83.18
62462;BME280;48511;38.664;-9.202;2022-12-19T00:29:06;50067.53;;;-146.63;83.16
62462;BME280;48511;38.664;-9.202;2022-12-19T00:31:11;50116.88;;;-146.63;83.03
62462;BME280;48511;38.664;-9.202;2022-12-19T00:33:12;50122.78;;;-146.63;83.25
62462;BME280;48511;38.664;-9.202;2022-12-19T00:35:15;50124.78;;;-146.63;83.29
62462;BME280;48511;38.664;-9.202;2022-12-19T00:37:15;50122.78;;;-146.63;83.41
62462;BME280;48511;38.664;-9.202;2022-12-19T00:39:16;50130.69;;;-146.63;83.41
62462;BME280;48511;38.664;-9.202;2022-12-19T00:41:21;50118.84;;;-146.63;83.51
62462;BME280;48511;38.664;-9.202;2022-12-19T00:43:23;50164.25;;;-146.63;83.71
62462;BME280;48511;38.664;-9.202;2022-12-19T00:45:23;50126.75;;;-146.63;84.02
62462;BME280;48511;38.664;-9.202;2022-12-19T00:47:27;50122.78;;;-146.63;83.67
62462;BME280;48511;38.664;-9.202;2022-12-19T00:49:28;50122.78;;;-146.63;83.68
62462;BME280;48511;38.664;-9.202;2022-12-19T00:51:30;50095.16;;;-146.63;83.76
62462;BME280;48511;38.664;-9.202;2022-12-19T00:53:32;50118.84;;;-146.63;83.85
62462;BME280;48511;38.664;-9.202;2022-12-19T00:55:32;50126.75;;;-146.63;83.71
62462;BME280;48511;38.664;-9.202;2022-12-19T00:57:33;50071.47;;;-146.63;83.70
62462;BME280;48511;38.664;-9.202;2022-12-19T00:59:35;50128.72;;;-146.63;83.84
62462;BME280;48511;38.664;-9.202;2022-12-19T01:01:38;50069.50;;;-146.63;83.85
62462;BME280;48511;38.664;-9.202;2022-12-19T01:03:40;50095.16;;;-146.63;83.71
62462;BME280;48511;38.664;-9.202;2022-12-19T01:05:41;50130.69;;;-146.63;83.64
62462;BME280;48511;38.664;-9.202;2022-12-19T01:07:42;50126.75;;;-146.63;83.86
62462;BME280;48511;38.664;-9.202;2022-12-19T01:09:42;50142.53;;;-146.63;84.08
62462;BME280;48511;38.664;-9.202;2022-12-19T01:11:43;50118.84;;;-146.63;84.15
62462;BME280;48511;38.664;-9.202;2022-12-19T01:14:03;50114.91;;;-146.63;83.92
62462;BME280;48511;38.664;-9.202;2022-12-19T01:16:12;50114.91;;;-146.63;83.85
62462;BME280;48511;38.664;-9.202;2022-12-19T01:18:13;50114.91;;;-146.63;83.98
62462;BME280;48511;38.664;-9.202;2022-12-19T01:20:16;50142.53;;;-146.63;84.13
62462;BME280;48511;38.664;-9.202;2022-12-19T01:22:18;50140.56;;;-146.63;83.96
62462;BME280;48511;38.664;-9.202;2022-12-19T01:24:19;50081.34;;;-146.63;84.18
62462;BME280;48511;38.664;-9.202;2022-12-19T01:26:23;50118.84;;;-146.63;84.36
62462;BME280;48511;38.664;-9.202;2022-12-19T01:28:24;50138.59;;;-146.63;84.56
62462;BME280;48511;38.664;-9.202;2022-12-19T01:30:28;50071.47;;;-146.63;84.29
62462;BME280;48511;38.664;-9.202;2022-12-19T01:32:29;50107.00;;;-146.63;84.72
62462;BME280;48511;38.664;-9.202;2022-12-19T01:34:31;50142.53;;;-146.63;84.74
62462;BME280;48511;38.664;-9.202;2022-12-19T01:36:32;50134.63;;;-146.63;84.91
62462;BME280;48511;38.664;-9.202;2022-12-19T01:38:35;50110.94;;;-146.63;85.11
62462;BME280;48511;38.664;-9.202;2022-12-19T01:40:36;50122.78;;;-146.63;85.49
62462;BME280;48511;38.664;-9.202;2022-12-19T01:42:37;50097.13;;;-146.63;85.57
62462;BME280;48511;38.664;-9.202;2022-12-19T01:44:38;50144.50;;;-146.63;85.59
62462;BME280;48511;38.664;-9.202;2022-12-19T01:46:45;50148.47;;;-146.63;85.70
62462;BME280;48511;38.664;-9.202;2022-12-19T01:48:47;50107.00;;;-146.63;85.98
62462;BME280;48511;38.664;-9.202;2022-12-19T01:50:57;50148.47;;;-146.63;86.12
62462;BME280;48511;38.664;-9.202;2022-12-19T01:52:59;50073.44;;;-146.63;86.11
62462;BME280;48511;38.664;-9.202;2022-12-19T01:55:01;50091.22;;;-146.63;85.90
62462;BME280;48511;38.664;-9.202;2022-12-19T01:57:05;50107.00;;;-146.63;85.97
62462;BME280;48511;38.664;-9.202;2022-12-19T01:59:13;50091.22;;;-146.63;86.15
62462;BME280;48511;38.664;-9.202;2022-12-19T02:01:16;50110.94;;;-146.63;86.11
62462;BME280;48511;38.664;-9.202;2022-12-19T02:03:24;50108.97;;;-146.63;86.10
62462;BME280;48511;38.664;-9.202;2022-12-19T02:05:26;50114.91;;;-146.63;86.09
62462;BME280;48511;38.664;-9.202;2022-12-19T02:07:27;50103.06;;;-146.63;85.84
62462;BME280;48511;38.664;-9.202;2022-12-19T02:09:28;50136.63;;;-146.63;85.88
62462;BME280;48511;38.664;-9.202;2022-12-19T02:11:32;50118.84;;;-146.63;85.64
62462;BME280;48511;38.664;-9.202;2022-12-19T02:13:33;50158.31;;;-146.63;85.59
62462;BME280;48511;38.664;-9.202;2022-12-19T02:15:45;50118.84;;;-146.63;85.40
62462;BME280;48511;38.664;-9.202;2022-12-19T02:18:07;50059.63;;;-146.63;85.46
62462;BME280;48511;38.664;-9.202;2022-12-19T02:36:49;50095.16;;;-146.63;85.65
62462;BME280;48511;38.664;-9.202;2022-12-19T02:38:57;50118.84;;;-146.63;85.68
62462;BME280;48511;38.664;-9.202;2022-12-19T02:41:14;50140.56;;;-146.63;85.68
62462;BME280;48511;38.664;-9.202;2022-12-19T02:43:20;50120.81;;;-146.63;85.76
62462;BME280;48511;38.664;-9.202;2022-12-19T02:45:25;50110.94;;;-146.63;85.48
62462;BME280;48511;38.664;-9.202;2022-12-19T02:47:31;50126.75;;;-146.63;85.26
62462;BME280;48511;38.664;-9.202;2022-12-19T02:49:35;50107.00;;;-146.63;85.32
62462;BME280;48511;38.664;-9.202;2022-12-19T02:51:36;50134.63;;;-146.63;85.28
62462;BME280;48511;38.664;-9.202;2022-12-19T02:53:37;50120.81;;;-146.63;85.44
62462;BME280;48511;38.664;-9.202;2022-12-19T02:55:49;50110.94;;;-146.63;85.54
62462;BME280;48511;38.664;-9.202;2022-12-19T03:00:13;50122.78;;;-146.63;85.48
62462;BME280;48511;38.664;-9.202;2022-12-19T03:09:26;50150.44;;;-146.63;85.56
62462;BME280;48511;38.664;-9.202;2022-12-19T03:11:34;50118.84;;;-146.63;85.67
62462;BME280;48511;38.664;-9.202;2022-12-19T03:14:05;50095.16;;;-146.63;85.13
62462;BME280;48511;38.664;-9.202;2022-12-19T03:16:08;50093.19;;;-146.63;85.51
62462;BME280;48511;38.664;-9.202;2022-12-19T03:18:11;50114.91;;;-146.63;85.73
62462;BME280;48511;38.664;-9.202;2022-12-19T03:22:39;50091.22;;;-146.63;85.93
62462;BME280;48511;38.664;-9.202;2022-12-19T03:24:40;50103.06;;;-146.63;86.09
62462;BME280;48511;38.664;-9.202;2022-12-19T03:31:03;50150.44;;;-146.63;86.27
62462;BME280;48511;38.664;-9.202;2022-12-19T03:33:07;50114.91;;;-146.63;86.06
62462;BME280;48511;38.664;-9.202;2022-12-19T03:35:19;50112.94;;;-146.63;85.91
62462;BME280;48511;38.664;-9.202;2022-12-19T03:37:25;50089.25;;;-146.63;85.75
62462;BME280;48511;38.664;-9.202;2022-12-19T03:39:29;50134.63;;;-146.63;85.70
62462;BME280;48511;38.664;-9.202;2022-12-19T03:41:31;50110.94;;;-146.63;85.68
62462;BME280;48511;38.664;-9.202;2022-12-19T03:43:50;50110.94;;;-146.63;85.37
62462;BME280;48511;38.664;-9.202;2022-12-19T03:48:19;50114.91;;;-146.63;85.58
62462;BME280;48511;38.664;-9.202;2022-12-19T03:50:23;50099.09;;;-146.63;85.49
62462;BME280;48511;38.664;-9.202;2022-12-19T03:52:40;50132.66;;;-146.63;85.32
62462;BME280;48511;38.664;-9.202;2022-12-19T03:55:40;50110.94;;;-146.63;84.96
62462;BME280;48511;38.664;-9.202;2022-12-19T03:59:38;50134.63;;;-146.63;85.21
62462;BME280;48511;38.664;-9.202;2022-12-19T04:01:40;50138.59;;;-146.63;85.23
62462;BME280;48511;38.664;-9.202;2022-12-19T04:03:42;50116.88;;;-146.63;85.46
62462;BME280;48511;38.664;-9.202;2022-12-19T04:05:45;50142.53;;;-146.63;85.28
62462;BME280;48511;38.664;-9.202;2022-12-19T04:07:46;50144.50;;;-146.63;85.50
62462;BME280;48511;38.664;-9.202;2022-12-19T04:09:49;50144.50;;;-146.63;85.74
62462;BME280;48511;38.664;-9.202;2022-12-19T04:11:59;50105.03;;;-146.63;85.78
62462;BME280;48511;38.664;-9.202;2022-12-19T04:14:11;50126.75;;;-146.63;85.84
62462;BME280;48511;38.664;-9.202;2022-12-19T04:16:24;50158.31;;;-146.63;85.99
62462;BME280;48511;38.664;-9.202;2022-12-19T04:18:29;50122.78;;;-146.63;86.11
62462;BME280;48511;38.664;-9.202;2022-12-19T04:20:31;50118.84;;;-146.63;86.00
62462;BME280;48511;38.664;-9.202;2022-12-19T04:24:39;50126.75;;;-146.63;86.12
62462;BME280;48511;38.664;-9.202;2022-12-19T04:26:45;50150.44;;;-146.63;86.20
62462;BME280;48511;38.664;-9.202;2022-12-19T04:28:53;50118.84;;;-146.63;86.25
62462;BME280;48511;38.664;-9.202;2022-12-19T04:30:56;50103.06;;;-146.63;86.23
62462;BME280;48511;38.664;-9.202;2022-12-19T04:32:58;50130.69;;;-146.63;86.15
62462;BME280;48511;38.664;-9.202;2022-12-19T04:34:58;50148.47;;;-146.63;86.27
62462;BME280;48511;38.664;-9.202;2022-12-19T04:36:59;50122.78;;;-146.63;86.29
62462;BME280;48511;38.664;-9.202;2022-12-19T04:39:00;50126.75;;;-146.63;86.43
62462;BME280;48511;38.664;-9.202;2022-12-19T04:41:01;50138.59;;;-146.63;86.62
62462;BME280;48511;38.664;-9.202;2022-12-19T04:43:01;50118.84;;;-146.63;86.44
62462;BME280;48511;38.664;-9.202;2022-12-19T04:45:03;50138.59;;;-146.63;86.28
62462;BME280;48511;38.664;-9.202;2022-12-19T04:47:04;50118.84;;;-146.63;86.34
62462;BME280;48511;38.664;-9.202;2022-12-19T04:49:05;50085.28;;;-146.63;86.19
62462;BME280;48511;38.664;-9.202;2022-12-19T04:51:06;50144.50;;;-146.63;86.37
62462;BME280;48511;38.664;-9.202;2022-12-19T04:53:07;50122.78;;;-146.63;86.47
62462;BME280;48511;38.664;-9.202;2022-12-19T04:55:08;50156.34;;;-146.63;86.41
62462;BME280;48511;38.664;-9.202;2022-12-19T04:57:08;50136.63;;;-146.63;86.45
62462;BME280;48511;38.664;-9.202;2022-12-19T04:59:09;50118.84;;;-146.63;86.47
62462;BME280;48511;38.664;-9.202;2022-12-19T05:01:10;50130.69;;;-146.63;86.25
62462;BME280;48511;38.664;-9.202;2022-12-19T05:03:13;50134.63;;;-146.63;86.30
62462;BME280;48511;38.664;-9.202;2022-12-19T05:05:14;50130.69;;;-146.63;86.02
62462;BME280;48511;38.664;-9.202;2022-12-19T05:07:19;50116.88;;;-146.63;86.08
62462;BME280;48511;38.664;-9.202;2022-12-19T05:09:19;50130.69;;;-146.63;85.98
62462;BME280;48511;38.664;-9.202;2022-12-19T05:11:20;50091.22;;;-146.63;86.00
62462;BME280;48511;38.664;-9.202;2022-12-19T05:13:21;50162.28;;;-146.63;85.92
62462;BME280;48511;38.664;-9.202;2022-12-19T05:15:21;50134.63;;;-146.63;85.90
62462;BME280;48511;38.664;-9.202;2022-12-19T05:17:23;50120.81;;;-146.63;85.86
62462;BME280;48511;38.664;-9.202;2022-12-19T05:19:23;50110.94;;;-146.63;85.88
62462;BME280;48511;38.664;-9.202;2022-12-19T05:21:24;50126.75;;;-146.63;85.87
62462;BME280;48511;38.664;-9.202;2022-12-19T05:23:25;50142.53;;;-146.63;85.96
62462;BME280;48511;38.664;-9.202;2022-12-19T05:25:26;50107.00;;;-146.63;85.73
62462;BME280;48511;38.664;-9.202;2022-12-19T05:27:27;50110.94;;;-146.63;85.75
62462;BME280;48511;38.664;-9.202;2022-12-19T05:29:27;50132.66;;;-146.63;85.84
62462;BME280;48511;38.664;-9.202;2022-12-19T05:31:28;50146.47;;;-146.63;85.84
62462;BME280;48511;38.664;-9.202;2022-12-19T05:33:29;50110.94;;;-146.63;85.99
62462;BME280;48511;38.664;-9.202;2022-12-19T05:35:29;50110.94;;;-146.63;86.05
62462;BME280;48511;38.664;-9.202;2022-12-19T05:37:30;50114.91;;;-146.63;85.64
62462;BME280;48511;38.664;-9.202;2022-12-19T05:39:30;50110.94;;;-146.63;85.66
62462;BME280;48511;38.664;-9.202;2022-12-19T05:41:31;50130.69;;;-146.63;85.90
62462;BME280;48511;38.664;-9.202;2022-12-19T05:43:32;50126.75;;;-146.63;85.83
62462;BME280;48511;38.664;-9.202;2022-12-19T05:45:32;50114.91;;;-146.63;85.76
62462;BME280;48511;38.664;-9.202;2022-12-19T05:47:33;50124.78;;;-146.63;85.71
62462;BME280;48511;38.664;-9.202;2022-12-19T05:49:34;50162.28;;;-146.63;85.89
62462;BME280;48511;38.664;-9.202;2022-12-19T05:51:34;50134.63;;;-146.63;85.85
62462;BME280;48511;38.664;-9.202;2022-12-19T05:53:36;50152.41;;;-146.63;85.70
62462;BME280;48511;38.664;-9.202;2022-12-19T05:55:37;50128.72;;;-146.63;85.61
62462;BME280;48511;38.664;-9.202;2022-12-19T05:57:38;50142.53;;;-146.63;85.48
62462;BME280;48511;38.664;-9.202;2022-12-19T05:59:39;50146.47;;;-146.63;85.29
62462;BME280;48511;38.664;-9.202;2022-12-19T06:01:39;50126.75;;;-146.63;85.31
62462;BME280;48511;38.664;-9.202;2022-12-19T06:03:40;50150.44;;;-146.63;85.08
62462;BME280;48511;38.664;-9.202;2022-12-19T06:05:52;50126.75;;;-146.63;84.66
62462;BME280;48511;38.664;-9.202;2022-12-19T06:08:13;50146.47;;;-146.63;84.57
62462;BME280;48511;38.664;-9.202;2022-12-19T06:10:13;50136.63;;;-146.63;84.52
62462;BME280;48511;38.664;-9.202;2022-12-19T06:12:14;50124.78;;;-146.63;84.50
62462;BME280;48511;38.664;-9.202;2022-12-19T06:14:15;50101.09;;;-146.63;84.12
62462;BME280;48511;38.664;-9.202;2022-12-19T06:16:18;50134.63;;;-146.63;83.93
62462;BME280;48511;38.664;-9.202;2022-12-19T06:18:19;50122.78;;;-146.63;83.77
62462;BME280;48511;38.664;-9.202;2022-12-19T06:20:19;50146.47;;;-146.63;83.62
62462;BME280;48511;38.664;-9.202;2022-12-19T06:22:20;50132.66;;;-146.63;83.55
62462;BME280;48511;38.664;-9.202;2022-12-19T06:24:23;50138.59;;;-146.63;83.46
62462;BME280;48511;38.664;-9.202;2022-12-19T06:26:24;50071.47;;;-146.63;82.65
62462;BME280;48511;38.664;-9.202;2022-12-19T06:28:26;50162.28;;;-146.63;82.43
62462;BME280;48511;38.664;-9.202;2022-12-19T06:30:27;50114.91;;;-146.63;82.04
62462;BME280;48511;38.664;-9.202;2022-12-19T06:32:28;50150.44;;;-146.63;82.06
62462;BME280;48511;38.664;-9.202;2022-12-19T06:34:28;50110.94;;;-146.63;81.90
62462;BME280;48511;38.664;-9.202;2022-12-19T06:36:30;50103.06;;;-146.63;81.62
62462;BME280;48511;38.664;-9.202;2022-12-19T06:38:32;50108.97;;;-146.63;81.17
62462;BME280;48511;38.664;-9.202;2022-12-19T06:40:33;50124.78;;;-146.63;81.03
62462;BME280;48511;38.664;-9.202;2022-12-19T06:42:52;50138.59;;;-146.63;80.63
62462;BME280;48511;38.664;-9.202;2022-12-19T06:44:54;50130.69;;;-146.63;80.42
62462;BME280;48511;38.664;-9.202;2022-12-19T06:46:55;50110.94;;;-146.63;79.67
62462;BME280;48511;38.664;-9.202;2022-12-19T06:48:55;50108.97;;;-146.63;79.61
62462;BME280;48511;38.664;-9.202;2022-12-19T06:50:56;50108.97;;;-146.63;79.38
62462;BME280;48511;38.664;-9.202;2022-12-19T06:52:57;50130.69;;;-146.63;79.51
62462;BME280;48511;38.664;-9.202;2022-12-19T06:54:57;50116.88;;;-146.63;79.01
62462;BME280;48511;38.664;-9.202;2022-12-19T06:56:58;50150.44;;;-146.63;79.07
62462;BME280;48511;38.664;-9.202;2022-12-19T06:58:59;50132.66;;;-146.63;79.27
62462;BME280;48511;38.664;-9.202;2022-12-19T07:00:59;50122.78;;;-146.63;79.15
62462;BME280;48511;38.664;-9.202;2022-12-19T07:03:01;50091.22;;;-146.63;79.06
62462;BME280;48511;38.664;-9.202;2022-12-19T07:05:05;50108.97;;;-146.63;79.24
62462;BME280;48511;38.664;-9.202;2022-12-19T07:07:07;50142.53;;;-146.63;79.15
62462;BME280;48511;38.664;-9.202;2022-12-19T07:09:07;50114.91;;;-146.63;79.10
62462;BME280;48511;38.664;-9.202;2022-12-19T07:11:08;50130.69;;;-146.63;78.80
62462;BME280;48511;38.664;-9.202;2022-12-19T07:13:09;50107.00;;;-146.63;78.74
62462;BME280;48511;38.664;-9.202;2022-12-19T07:15:10;50118.84;;;-146.63;79.30
62462;BME280;48511;38.664;-9.202;2022-12-19T07:17:12;50126.75;;;-146.63;79.40
62462;BME280;48511;38.664;-9.202;2022-12-19T07:19:12;50093.19;;;-146.63;79.29
62462;BME280;48511;38.664;-9.202;2022-12-19T07:21:14;50122.78;;;-146.63;79.58
62462;BME280;48511;38.664;-9.202;2022-12-19T07:23:17;50101.09;;;-146.63;80.09
62462;BME280;48511;38.664;-9.202;2022-12-19T07:25:19;50114.91;;;-146.63;80.28
62462;BME280;48511;38.664;-9.202;2022-12-19T07:27:20;50134.63;;;-146.63;80.41
62462;BME280;48511;38.664;-9.202;2022-12-19T07:29:22;50134.63;;;-146.63;80.57
62462;BME280;48511;38.664;-9.202;2022-12-19T07:31:23;50134.63;;;-146.63;80.45
62462;BME280;48511;38.664;-9.202;2022-12-19T07:33:23;50107.00;;;-146.63;80.72
62462;BME280;48511;38.664;-9.202;2022-12-19T07:35:24;50107.00;;;-146.63;80.51
62462;BME280;48511;38.664;-9.202;2022-12-19T07:37:25;50166.22;;;-146.63;80.11
62462;BME280;48511;38.664;-9.202;2022-12-19T07:39:25;50083.31;;;-146.63;80.34
62462;BME280;48511;38.664;-9.202;2022-12-19T07:41:26;50126.75;;;-146.63;80.36
62462;BME280;48511;38.664;-9.202;2022-12-19T07:43:27;50107.00;;;-146.63;80.63
62462;BME280;48511;38.664;-9.202;2022-12-19T07:45:28;50110.94;;;-146.63;80.50
62462;BME280;48511;38.664;-9.202;2022-12-19T07:47:29;50144.50;;;-146.63;80.81
62462;BME280;48511;38.664;-9.202;2022-12-19T07:49:30;50097.13;;;-146.63;80.74
62462;BME280;48511;38.664;-9.202;2022-12-19T07:51:31;50144.50;;;-146.63;80.81
62462;BME280;48511;38.664;-9.202;2022-12-19T07:53:33;50146.47;;;-146.63;80.46
62462;BME280;48511;38.664;-9.202;2022-12-19T07:55:33;50146.47;;;-146.63;80.58
62462;BME280;48511;38.664;-9.202;2022-12-19T07:57:34;50128.72;;;-146.63;80.65
62462;BME280;48511;38.664;-9.202;2022-12-19T07:59:35;50130.69;;;-146.63;80.84
62462;BME280;48511;38.664;-9.202;2022-12-19T08:01:35;50107.00;;;-146.63;80.81
62462;BME280;48511;38.664;-9.202;2022-12-19T08:03:36;50132.66;;;-146.63;81.03
62462;BME280;48511;38.664;-9.202;2022-12-19T08:05:37;50146.47;;;-146.63;81.25
62462;BME280;48511;38.664;-9.202;2022-12-19T08:07:38;50110.94;;;-146.63;81.09
62462;BME280;48511;38.664;-9.202;2022-12-19T08:09:38;50134.63;;;-146.63;80.95
62462;BME280;48511;38.664;-9.202;2022-12-19T08:11:39;50130.69;;;-146.63;80.85
62462;BME280;48511;38.664;-9.202;2022-12-19T08:13:40;50114.91;;;-146.63;80.40
62462;BME280;48511;38.664;-9.202;2022-12-19T08:15:41;50087.28;;;-146.63;80.49
62462;BME280;48511;38.664;-9.202;2022-12-19T08:17:41;50146.47;;;-146.63;80.34
62462;BME280;48511;38.664;-9.202;2022-12-19T08:19:42;50166.22;;;-146.63;80.37
62462;BME280;48511;38.664;-9.202;2022-12-19T08:21:43;50120.81;;;-146.63;79.77
62462;BME280;48511;38.664;-9.202;2022-12-19T08:23:44;50103.06;;;-146.63;80.09
62462;BME280;48511;38.664;-9.202;2022-12-19T08:25:47;50081.34;;;-146.63;79.47
62462;BME280;48511;38.664;-9.202;2022-12-19T08:27:48;50128.72;;;-146.63;79.51
62462;BME280;48511;38.664;-9.202;2022-12-19T08:29:49;50134.63;;;-146.63;79.68
62462;BME280;48511;38.664;-9.202;2022-12-19T08:31:50;50162.28;;;-146.63;79.32
62462;BME280;48511;38.664;-9.202;2022-12-19T08:33:52;50132.66;;;-146.63;79.12
62462;BME280;48511;38.664;-9.202;2022-12-19T08:35:53;50107.00;;;-146.63;79.05
62462;BME280;48511;38.664;-9.202;2022-12-19T08:37:53;50132.66;;;-146.63;79.22
62462;BME280;48511;38.664;-9.202;2022-12-19T08:39:54;50099.09;;;-146.63;78.63
62462;BME280;48511;38.664;-9.202;2022-12-19T08:41:55;50071.47;;;-146.63;78.21
62462;BME280;48511;38.664;-9.202;2022-12-19T08:43:55;50116.88;;;-146.63;77.98
62462;BME280;48511;38.664;-9.202;2022-12-19T08:45:57;50138.59;;;-146.63;77.88
62462;BME280;48511;38.664;-9.202;2022-12-19T08:47:58;50110.94;;;-146.63;77.93
62462;BME280;48511;38.664;-9.202;2022-12-19T08:49:58;50114.91;;;-146.63;77.76
62462;BME280;48511;38.664;-9.202;2022-12-19T08:51:59;50118.84;;;-146.63;77.31
62462;BME280;48511;38.664;-9.202;2022-12-19T08:54:00;50103.06;;;-146.63;77.37
62462;BME280;48511;38.664;-9.202;2022-12-19T08:56:03;50150.44;;;-146.63;77.27
62462;BME280;48511;38.664;-9.202;2022-12-19T08:58:05;50152.41;;;-146.63;77.21
62462;BME280;48511;38.664;-9.202;2022-12-19T09:00:07;50126.75;;;-146.63;77.32
62462;BME280;48511;38.664;-9.202;2022-12-19T09:02:08;50150.44;;;-146.63;76.18
62462;BME280;48511;38.664;-9.202;2022-12-19T09:04:10;50114.91;;;-146.63;76.40
62462;BME280;48511;38.664;-9.202;2022-12-19T09:06:12;50087.28;;;-146.63;76.56
62462;BME280;48511;38.664;-9.202;2022-12-19T09:08:13;50093.19;;;-146.63;76.37
62462;BME280;48511;38.664;-9.202;2022-12-19T09:10:13;50148.47;;;-146.63;76.37
62462;BME280;48511;38.664;-9.202;2022-12-19T09:12:15;50097.13;;;-146.63;75.98
62462;BME280;48511;38.664;-9.202;2022-12-19T09:14:16;50128.72;;;-146.63;76.03
62462;BME280;48511;38.664;-9.202;2022-12-19T09:16:19;50138.59;;;-146.63;76.05
62462;BME280;48511;38.664;-9.202;2022-12-19T09:18:20;50158.31;;;-146.63;76.27
62462;BME280;48511;38.664;-9.202;2022-12-19T09:20:21;50130.69;;;-146.63;75.87
62462;BME280;48511;38.664;-9.202;2022-12-19T09:22:22;50130.69;;;-146.63;75.97
62462;BME280;48511;38.664;-9.202;2022-12-19T09:24:22;50085.28;;;-146.63;75.72
62462;BME280;48511;38.664;-9.202;2022-12-19T09:26:24;50118.84;;;-146.63;75.08
62462;BME280;48511;38.664;-9.202;2022-12-19T09:28:26;50134.63;;;-146.63;74.73
62462;BME280;48511;38.664;-9.202;2022-12-19T09:30:27;50107.00;;;-146.63;74.30
62462;BME280;48511;38.664;-9.202;2022-12-19T09:32:28;50132.66;;;-146.63;74.15
62462;BME280;48511;38.664;-9.202;2022-12-19T09:34:29;50142.53;;;-146.63;74.10
62462;BME280;48511;38.664;-9.202;2022-12-19T09:36:30;50128.72;;;-146.63;74.22
62462;BME280;48511;38.664;-9.202;2022-12-19T09:38:32;50118.84;;;-146.63;74.46
62462;BME280;48511;38.664;-9.202;2022-12-19T09:40:55;50138.59;;;-146.63;74.46
62462;BME280;48511;38.664;-9.202;2022-12-19T09:47:43;50144.50;;;-146.63;75.13
62462;BME280;48511;38.664;-9.202;2022-12-19T09:49:47;50142.53;;;-146.63;74.66
62462;BME280;48511;38.664;-9.202;2022-12-19T09:52:08;50114.91;;;-146.63;74.50
62462;BME280;48511;38.664;-9.202;2022-12-19T09:54:41;50112.94;;;-146.63;74.51
62462;BME280;48511;38.664;-9.202;2022-12-19T09:56:44;50140.56;;;-146.63;74.39
62462;BME280;48511;38.664;-9.202;2022-12-19T09:58:52;50118.84;;;-146.63;74.05
62462;BME280;48511;38.664;-9.202;2022-12-19T10:01:00;50112.94;;;-146.63;73.02
62462;BME280;48511;38.664;-9.202;2022-12-19T10:03:52;50110.94;;;-146.63;73.21
62462;BME280;48511;38.664;-9.202;2022-12-19T10:05:48;50089.25;;;-146.63;73.33
62462;BME280;48511;38.664;-9.202;2022-12-19T10:07:51;50130.69;;;-146.63;73.32
62462;BME280;48511;38.664;-9.202;2022-12-19T10:09:52;50116.88;;;-146.63;73.50
62462;BME280;48511;38.664;-9.202;2022-12-19T10:14:55;50107.00;;;-146.63;73.26
62462;BME280;48511;38.664;-9.202;2022-12-19T10:29:15;50101.09;;;-146.63;74.71
62462;BME280;48511;38.664;-9.202;2022-12-19T10:33:47;50130.69;;;-146.63;75.10
62462;BME280;48511;38.664;-9.202;2022-12-19T10:35:55;50091.22;;;-146.63;75.46
62462;BME280;48511;38.664;-9.202;2022-12-19T10:38:15;50140.56;;;-146.63;75.65
62462;BME280;48511;38.664;-9.202;2022-12-19T10:40:31;50105.03;;;-146.63;75.31
62462;BME280;48511;38.664;-9.202;2022-12-19T10:43:17;50116.88;;;-146.63;75.60
62462;BME280;48511;38.664;-9.202;2022-12-19T10:45:22;50118.84;;;-146.63;75.66
62462;BME280;48511;38.664;-9.202;2022-12-19T10:47:23;50103.06;;;-146.63;75.74
62462;BME280;48511;38.664;-9.202;2022-12-19T10:49:25;50118.84;;;-146.63;75.58
62462;BME280;48511;38.664;-9.202;2022-12-19T10:51:28;50095.16;;;-146.63;76.02
62462;BME280;48511;38.664;-9.202;2022-12-19T10:53:29;50116.88;;;-146.63;75.54
62462;BME280;48511;38.664;-9.202;2022-12-19T10:57:44;50132.66;;;-146.63;75.08
62462;BME280;48511;38.664;-9.202;2022-12-19T11:00:05;50110.94;;;-146.63;75.38
62462;BME280;48511;38.664;-9.202;2022-12-19T11:04:32;50114.91;;;-146.63;75.13
62462;BME280;48511;38.664;-9.202;2022-12-19T11:08:35;50138.59;;;-146.63;75.02
62462;BME280;48511;38.664;-9.202;2022-12-19T11:10:42;50126.75;;;-146.63;74.64
62462;BME280;48511;38.664;-9.202;2022-12-19T11:12:51;50118.84;;;-146.63;75.07
62462;BME280;48511;38.664;-9.202;2022-12-19T11:15:12;50101.09;;;-146.63;75.19
62462;BME280;48511;38.664;-9.202;2022-12-19T11:17:42;50126.75;;;-146.63;75.13
62462;BME280;48511;38.664;-9.202;2022-12-19T11:19:43;50114.91;;;-146.63;75.45
62462;BME280;48511;38.664;-9.202;2022-12-19T11:21:44;50095.16;;;-146.63;75.55
62462;BME280;48511;38.664;-9.202;2022-12-19T11:23:54;50116.88;;;-146.63;75.79
62462;BME280;48511;38.664;-9.202;2022-12-19T11:26:02;50095.16;;;-146.63;75.86
62462;BME280;48511;38.664;-9.202;2022-12-19T11:28:21;50134.63;;;-146.63;75.58
62462;BME280;48511;38.664;-9.202;2022-12-19T11:30:25;50083.31;;;-146.63;75.43
62462;BME280;48511;38.664;-9.202;2022-12-19T11:32:35;50122.78;;;-146.63;75.78
62462;BME280;48511;38.664;-9.202;2022-12-19T11:34:36;50091.22;;;-146.63;75.50
62462;BME280;48511;38.664;-9.202;2022-12-19T11:41:54;50126.75;;;-146.63;76.18
62462;BME280;48511;38.664;-9.202;2022-12-19T11:44:05;50154.38;;;-146.63;76.47